FRIANT DAM (MILLERTON) (MIL)

Elevation: 581' · SAN JOAQUIN R basin · Operator: US Bureau of Reclamation

Provisional data, subject to change.
Query executed Tuesday at 9:43:49   clock

Select a sensor type for a plot of data.
Note: Reservoir Flows are daily averages.

Earlier

Date RES ELE    STORAGE    RES CHG    TOC STO    ABV TOC    OUTFLOW    INFLOW    EVAP    FNF    RIV REL    PPT INC    SPILL   
 FEET   AF   AF   AF   AF   CFS   CFS   CFS   CFS   CFS   INCHES   CFS  
06/30/2014 532.96 325919 -2143 520500 -194581 1781 754 53 703 1298 0.00 0
07/01/2014 532.68 324872 -1047 520500 -195628 1693 1222 57 608 e 1336 0.00 0
07/02/2014 532.19 323042 -1830 520500 -197458 1635 770 58 607 e 1345 0.00 0
07/03/2014 531.65 321034 -2008 520500 -199466 1720 762 54 564 1315 0.00 0
07/04/2014 531.19 319328 -1706 520500 -201172 1772 962 50 479 1309 0.00 0
07/05/2014 530.63 317260 -2068 520500 -203240 1762 785 66 471 1300 0.00 0
07/06/2014 530.05 315124 -2136 520500 -205376 1760 727 44 443 1298 0.00 0
07/07/2014 529.46 312956 -2168 520500 -207544 1758 693 28 428 1296 0.00 0
07/08/2014 528.96 311119 -1837 520500 -209381 1755 886 57 367 1294 0.00 0
07/09/2014 528.41 309112 -2007 520500 -211388 1754 791 49 488 1292 0.00 0
07/10/2014 527.96 307470 -1642 520500 -213030 1751 995 72 366 1290 0.00 0
07/11/2014 527.45 305623 -1847 520500 -- 1753 875 53 412 1289 0.00 0
07/12/2014 526.77 303166 -2457 520500 -- 1762 565 42 285 1299 0.00 0
07/13/2014 526.17 301007 -2159 520500 -219493 1766 723 45 409 1303 0.00 0
07/14/2014 525.61 299004 -2003 520500 -221496 1672 694 32 230 1302 0.00 0
07/15/2014 525.19 297504 -1500 520500 -222996 1560 862 58 536 1299 0.00 0
07/16/2014 524.74 295905 -1599 520500 -- 1563 811 54 586 e 1298 0.00 0
07/17/2014 524.14 293778 -2127 520500 -226722 1613 579 38 585 e 1296 0.00 0
07/18/2014 523.78 292508 -1270 520500 -227992 1514 914 40 496 e 1295 0.00 0
07/19/2014 523.40 291171 -1337 520500 -- 1513 886 47 495 e 1294 0.00 0
07/20/2014 523.06 289974 -1197 520500 -230526 1718 1163 48 381 1298 0.00 0
07/21/2014 522.35 287493 -2481 520500 -233007 1823 606 34 456 1300 0.00 0
07/22/2014 521.84 285716 -1777 520500 -234784 1795 942 43 430 1298 0.00 0
07/23/2014 521.40 284191 -1525 520500 -236309 1602 879 46 407 1296 0.00 0
07/24/2014 521.17 283394 -797 520500 -237106 1544 1176 34 290 e 1295 0.00 0
07/25/2014 520.96 282667 -727 520500 -237833 1409 1088 46 285 e 1300 0.00 0
07/26/2014 520.82 282186 -481 520500 -238314 1464 1265 44 280 e 1303 0.00 0
07/27/2014 520.41 280775 -1411 520500 -239725 1668 1019 62 275 e 1302 0.00 0
07/28/2014 519.93 279124 -1651 520500 -241376 1801 1000 31 270 e 1300 0.00 0
07/29/2014 -- -- -- -- -- -- -- -- -- -- -- --

Later | Latest

Warning! This data is preliminary and subject to revision.

Download Data Now Download Data Now | Show MIL Map | Plot MIL Data | 1 Month MIL Data | Real-Time MIL Data | MIL Info